Time;durP1;ratioP1;P1;durP2;ratioP2;P2;SDS_P1;SDS_P2;PMS_P1;PMS_P2;Temp;Humidity;BMP_temperature;BMP_pressure;BME280_temperature;BME280_humidity;BME280_pressure;Samples;Min_cycle;Max_cycle;Signal;HPM_P1;HPM_P2
2021/11/14 00:00:41;;;;;;;60.50;35.27;;;6.80;99.90;;;;;;5043159;28;20612;-63
2021/11/14 00:03:08;;;;;;;61.47;36.20;;;6.80;99.90;;;;;;5049086;28;20214;-63
2021/11/14 00:05:36;;;;;;;60.27;35.47;;;6.80;99.90;;;;;;5031237;28;20219;-61
2021/11/14 00:08:04;;;;;;;63.60;35.83;;;6.80;99.90;;;;;;5032241;28;20217;-61
2021/11/14 00:10:33;;;;;;;64.07;35.73;;;6.80;99.90;;;;;;5031750;28;20619;-64
2021/11/14 00:13:01;;;;;;;65.03;36.37;;;6.80;99.90;;;;;;5030877;28;20379;-63
2021/11/14 00:15:28;;;;;;;60.50;34.80;;;6.90;99.90;;;;;;5031118;28;20210;-62
2021/11/14 00:17:56;;;;;;;65.40;36.07;;;6.80;99.90;;;;;;5030607;28;20210;-62
2021/11/14 00:20:23;;;;;;;62.63;36.63;;;6.90;99.90;;;;;;5046127;28;20241;-62
2021/11/14 00:22:50;;;;;;;64.93;38.33;;;6.90;99.90;;;;;;5045744;28;20209;-62
2021/11/14 00:25:18;;;;;;;64.33;34.83;;;6.90;99.90;;;;;;5045990;28;20237;-62
2021/11/14 00:27:45;;;;;;;68.83;36.03;;;6.90;99.90;;;;;;5042711;28;20211;-62
2021/11/14 00:30:14;;;;;;;63.60;35.97;;;6.90;99.90;;;;;;5034305;28;20674;-63
2021/11/14 00:32:41;;;;;;;68.10;35.63;;;6.90;99.90;;;;;;5031114;28;20202;-62
2021/11/14 00:35:10;;;;;;;76.90;38.33;;;6.90;99.90;;;;;;5031075;28;20221;-62
2021/11/14 00:37:37;;;;;;;63.70;36.37;;;6.90;99.90;;;;;;5040950;28;20224;-61
2021/11/14 00:40:06;;;;;;;69.50;37.53;;;6.80;99.90;;;;;;5046590;28;20220;-61
2021/11/14 00:42:34;;;;;;;74.27;40.53;;;6.70;99.90;;;;;;5037068;28;20671;-62
2021/11/14 00:45:01;;;;;;;73.07;38.60;;;6.80;99.90;;;;;;5044489;28;20233;-62
2021/11/14 00:47:29;;;;;;;71.30;35.90;;;6.60;99.90;;;;;;5038251;28;20289;-61
2021/11/14 00:49:56;;;;;;;73.17;39.23;;;6.60;99.90;;;;;;5041446;28;20212;-63
2021/11/14 00:52:22;;;;;;;72.80;38.93;;;6.60;99.90;;;;;;5044413;28;20210;-63
2021/11/14 00:54:50;;;;;;;73.77;39.73;;;6.60;99.90;;;;;;5046234;28;20213;-63
2021/11/14 00:57:17;;;;;;;72.23;39.33;;;6.50;99.90;;;;;;5045271;28;20227;-64
2021/11/14 00:59:43;;;;;;;79.43;39.40;;;6.50;99.90;;;;;;5042907;28;20678;-62
2021/11/14 01:02:10;;;;;;;78.63;40.73;;;6.50;99.90;;;;;;5041500;28;20208;-62
2021/11/14 01:04:38;;;;;;;77.70;40.57;;;6.50;99.90;;;;;;5041003;28;20598;-62
2021/11/14 01:07:05;;;;;;;75.83;39.30;;;6.50;99.90;;;;;;5034502;28;20663;-64
2021/11/14 01:09:32;;;;;;;80.63;39.80;;;6.50;99.90;;;;;;5035119;28;20210;-63
2021/11/14 01:11:59;;;;;;;76.63;39.93;;;6.50;99.90;;;;;;5033350;28;20243;-61
2021/11/14 01:14:26;;;;;;;68.87;38.47;;;6.50;99.90;;;;;;5044891;28;20202;-61
2021/11/14 01:16:53;;;;;;;80.13;38.73;;;6.50;99.90;;;;;;5039233;28;20213;-60
2021/11/14 01:19:20;;;;;;;71.23;38.23;;;6.50;99.90;;;;;;5034679;28;20207;-62
2021/11/14 01:21:48;;;;;;;77.47;39.27;;;6.50;99.90;;;;;;5037480;28;20210;-61
2021/11/14 01:24:16;;;;;;;76.27;37.80;;;6.50;99.90;;;;;;5033813;28;20206;-61
2021/11/14 01:26:43;;;;;;;69.93;37.00;;;6.50;99.90;;;;;;5046898;28;20557;-61
2021/11/14 01:29:10;;;;;;;74.17;37.97;;;6.50;99.90;;;;;;5048491;28;20207;-61
2021/11/14 01:31:37;;;;;;;68.87;37.40;;;6.50;99.90;;;;;;5046367;28;20213;-63
2021/11/14 01:34:04;;;;;;;72.33;39.57;;;6.40;99.90;;;;;;5048969;28;20214;-61
2021/11/14 01:36:34;;;;;;;78.13;39.67;;;6.40;99.90;;;;;;5045010;28;20202;-63
2021/11/14 01:39:06;;;;;;;78.23;39.67;;;6.30;99.90;;;;;;5050785;28;20217;-62
2021/11/14 01:41:33;;;;;;;71.10;39.10;;;6.30;99.90;;;;;;5034446;28;20203;-64
2021/11/14 01:44:01;;;;;;;75.97;40.67;;;6.30;99.90;;;;;;5033974;28;20214;-63
2021/11/14 01:46:28;;;;;;;79.33;41.37;;;6.30;99.90;;;;;;5035094;28;20223;-62
2021/11/14 01:48:56;;;;;;;78.70;41.53;;;6.20;99.90;;;;;;5048059;28;20568;-61
2021/11/14 01:51:25;;;;;;;76.83;40.30;;;6.20;99.90;;;;;;5035670;28;20209;-64
2021/11/14 01:53:52;;;;;;;75.07;39.30;;;6.20;99.90;;;;;;5033762;28;20479;-63
2021/11/14 01:56:22;;;;;;;71.57;38.27;;;6.20;99.90;;;;;;5040476;28;20226;-63
2021/11/14 01:58:49;;;;;;;71.43;37.53;;;6.20;99.90;;;;;;5033515;28;20227;-64
2021/11/14 02:01:18;;;;;;;73.20;37.17;;;6.20;99.90;;;;;;5033732;28;20652;-63
2021/11/14 02:03:49;;;;;;;77.17;38.73;;;6.20;99.90;;;;;;5036188;28;20211;-63
2021/11/14 02:06:18;;;;;;;71.97;36.90;;;6.10;99.90;;;;;;5045591;28;20209;-63
2021/11/14 02:08:46;;;;;;;75.17;37.40;;;6.20;99.90;;;;;;5037627;28;20677;-64
2021/11/14 02:11:16;;;;;;;76.57;38.57;;;6.30;99.90;;;;;;5040851;28;20270;-63
2021/11/14 02:13:46;;;;;;;76.23;39.83;;;6.20;99.90;;;;;;5041982;28;20202;-63
2021/11/14 02:16:13;;;;;;;75.83;37.90;;;6.10;99.90;;;;;;5033132;28;20563;-64
2021/11/14 02:18:40;;;;;;;75.23;38.40;;;6.10;99.90;;;;;;5039122;28;20587;-63
2021/11/14 02:21:09;;;;;;;80.03;40.50;;;6.10;99.90;;;;;;5034286;28;20296;-64
2021/11/14 02:23:36;;;;;;;74.17;38.53;;;6.10;99.90;;;;;;5042419;28;20713;-61
2021/11/14 02:26:03;;;;;;;76.53;38.30;;;6.10;99.90;;;;;;5033210;28;20321;-62
2021/11/14 02:28:30;;;;;;;84.03;38.73;;;6.10;99.90;;;;;;5032752;28;20207;-62
2021/11/14 02:30:58;;;;;;;78.30;38.87;;;6.10;99.90;;;;;;5033210;28;20210;-62
2021/11/14 02:33:27;;;;;;;77.17;38.77;;;6.10;99.90;;;;;;5045295;28;20213;-62
2021/11/14 02:36:02;;;;;;;75.37;38.43;;;6.20;99.90;;;;;;5038103;28;20206;-65
2021/11/14 02:38:31;;;;;;;69.93;36.17;;;6.20;99.90;;;;;;5042613;28;20212;-68
2021/11/14 02:40:59;;;;;;;80.87;40.07;;;6.20;99.90;;;;;;5053298;28;20205;-68
2021/11/14 02:43:26;;;;;;;70.87;36.13;;;6.20;99.90;;;;;;5041224;28;20306;-67
2021/11/14 02:45:53;;;;;;;72.77;37.10;;;6.20;99.90;;;;;;5034025;28;20226;-67
2021/11/14 02:48:21;;;;;;;70.37;37.03;;;6.30;99.90;;;;;;5041189;28;20205;-68
2021/11/14 02:50:51;;;;;;;70.30;37.73;;;6.30;99.90;;;;;;5040050;28;20226;-67
2021/11/14 02:53:19;;;;;;;70.80;36.37;;;6.30;99.90;;;;;;5037664;28;20198;-68
2021/11/14 02:55:48;;;;;;;70.57;36.63;;;6.30;99.90;;;;;;5032609;28;20210;-68
2021/11/14 02:58:16;;;;;;;72.40;38.00;;;6.40;99.90;;;;;;5046530;28;20206;-68
2021/11/14 03:00:46;;;;;;;73.27;37.10;;;6.40;99.90;;;;;;5042555;28;20210;-68
2021/11/14 03:03:13;;;;;;;79.27;38.67;;;6.40;99.90;;;;;;5044675;28;20220;-68
2021/11/14 03:05:41;;;;;;;71.87;37.10;;;6.40;99.90;;;;;;5032115;28;20233;-67
2021/11/14 03:08:08;;;;;;;67.57;35.27;;;6.30;99.90;;;;;;5032446;28;20513;-67
2021/11/14 03:10:35;;;;;;;74.53;37.87;;;6.30;99.90;;;;;;5050618;28;20233;-68
2021/11/14 03:13:06;;;;;;;72.60;36.80;;;6.30;99.90;;;;;;5046182;28;20205;-67
2021/11/14 03:15:37;;;;;;;72.07;36.53;;;6.30;99.90;;;;;;5046875;28;20221;-68
2021/11/14 03:18:05;;;;;;;74.13;36.07;;;6.30;99.90;;;;;;5040447;28;20214;-68
2021/11/14 03:20:32;;;;;;;71.90;38.73;;;6.40;99.90;;;;;;5034420;28;20580;-67
2021/11/14 03:22:59;;;;;;;75.37;38.97;;;6.40;99.90;;;;;;5038106;28;20209;-68
2021/11/14 03:25:29;;;;;;;70.63;36.70;;;6.50;99.90;;;;;;5051808;28;20236;-69
2021/11/14 03:27:56;;;;;;;80.30;37.50;;;6.50;99.90;;;;;;5043239;28;20660;-67
2021/11/14 03:30:26;;;;;;;67.40;35.97;;;6.50;99.90;;;;;;5034841;28;20206;-67
2021/11/14 03:32:53;;;;;;;72.40;37.83;;;6.50;99.90;;;;;;5044870;28;20568;-68
2021/11/14 03:35:23;;;;;;;70.93;35.50;;;6.50;99.90;;;;;;5033776;28;20217;-67
2021/11/14 03:37:50;;;;;;;67.80;35.63;;;6.60;99.90;;;;;;5031693;28;20225;-66
2021/11/14 03:40:19;;;;;;;73.40;37.20;;;6.60;99.90;;;;;;5031257;28;20203;-67
2021/11/14 03:42:46;;;;;;;76.80;38.00;;;6.50;99.90;;;;;;5034743;28;20206;-66
2021/11/14 03:45:13;;;;;;;71.93;37.13;;;6.50;99.90;;;;;;5038329;28;20230;-67
2021/11/14 03:47:42;;;;;;;79.40;37.13;;;6.50;99.90;;;;;;5044553;28;20210;-69
2021/11/14 03:50:10;;;;;;;74.47;36.03;;;6.50;99.90;;;;;;5031321;28;20207;-67
2021/11/14 03:52:38;;;;;;;74.00;38.80;;;6.50;99.90;;;;;;5036792;28;20505;-66
2021/11/14 03:55:06;;;;;;;75.83;38.57;;;6.50;99.90;;;;;;5033414;28;20203;-67
2021/11/14 03:57:33;;;;;;;80.43;38.67;;;6.50;99.90;;;;;;5042674;28;20225;-69
2021/11/14 04:00:00;;;;;;;79.73;38.00;;;6.50;99.90;;;;;;5033389;28;20544;-68
2021/11/14 04:02:27;;;;;;;74.67;38.03;;;6.50;99.90;;;;;;5031354;28;20667;-67
2021/11/14 04:04:55;;;;;;;72.50;38.17;;;6.50;99.90;;;;;;5035034;28;20221;-68
2021/11/14 04:07:22;;;;;;;73.50;37.57;;;6.50;99.90;;;;;;5033593;28;20234;-67
2021/11/14 04:09:49;;;;;;;74.90;37.53;;;6.50;99.90;;;;;;5041160;28;20206;-67
2021/11/14 04:12:15;;;;;;;77.77;39.07;;;6.50;99.90;;;;;;5030879;28;20199;-68
2021/11/14 04:14:42;;;;;;;77.10;39.60;;;6.50;99.90;;;;;;5049910;28;20236;-68
2021/11/14 04:17:09;;;;;;;81.17;40.47;;;6.50;99.90;;;;;;5042297;28;20195;-67
2021/11/14 04:19:36;;;;;;;87.70;41.90;;;6.60;99.90;;;;;;5041075;28;20225;-68
2021/11/14 04:22:04;;;;;;;85.60;42.57;;;6.60;99.90;;;;;;5046961;28;20207;-67
2021/11/14 04:24:31;;;;;;;83.50;39.90;;;6.60;99.90;;;;;;5038591;28;20777;-67
2021/11/14 04:26:58;;;;;;;78.77;40.37;;;6.60;99.90;;;;;;5030289;28;20413;-67
2021/11/14 04:29:25;;;;;;;80.07;39.07;;;6.60;99.90;;;;;;5038060;28;20209;-67
2021/11/14 04:31:52;;;;;;;83.63;40.60;;;6.60;99.90;;;;;;5051223;28;20582;-66
2021/11/14 04:34:19;;;;;;;79.50;39.53;;;6.60;99.90;;;;;;5031090;28;20217;-67
2021/11/14 04:36:45;;;;;;;77.33;38.77;;;6.60;99.90;;;;;;5037543;28;20218;-67
2021/11/14 04:39:14;;;;;;;84.00;38.47;;;6.50;99.90;;;;;;5031172;28;20211;-67
2021/11/14 04:41:41;;;;;;;76.73;37.40;;;6.50;99.90;;;;;;5030986;28;20214;-67
2021/11/14 04:44:08;;;;;;;79.67;38.07;;;6.50;99.90;;;;;;5040008;28;21076;-68
2021/11/14 04:46:34;;;;;;;82.80;39.20;;;6.40;99.90;;;;;;5037267;28;20218;-68
2021/11/14 04:49:01;;;;;;;75.87;37.33;;;6.40;99.90;;;;;;5037999;28;20206;-68
2021/11/14 04:51:28;;;;;;;74.60;37.87;;;6.40;99.90;;;;;;5036628;28;20210;-68
2021/11/14 04:53:55;;;;;;;85.23;38.30;;;6.30;99.90;;;;;;5034466;28;20216;-68
2021/11/14 04:56:23;;;;;;;84.50;38.73;;;6.30;99.90;;;;;;5031902;28;20596;-67
2021/11/14 04:58:50;;;;;;;80.40;37.13;;;6.30;99.90;;;;;;5042917;28;20217;-68
2021/11/14 05:01:17;;;;;;;87.40;39.27;;;6.30;99.90;;;;;;5036359;28;20648;-68
2021/11/14 05:03:44;;;;;;;75.23;36.20;;;6.20;99.90;;;;;;5031078;28;20215;-68
2021/11/14 05:06:13;;;;;;;78.83;37.13;;;6.20;99.90;;;;;;5029677;28;20564;-68
2021/11/14 05:08:40;;;;;;;83.90;38.23;;;6.20;99.90;;;;;;5030609;28;20617;-68
2021/11/14 05:11:07;;;;;;;79.43;37.50;;;6.10;99.90;;;;;;5030128;28;20234;-68
2021/11/14 05:13:35;;;;;;;89.80;38.27;;;6.10;99.90;;;;;;5040039;28;20206;-67
2021/11/14 05:16:02;;;;;;;75.20;37.33;;;6.10;99.90;;;;;;5036684;28;20213;-67
2021/11/14 05:18:29;;;;;;;75.07;35.90;;;6.00;99.90;;;;;;5034300;28;20579;-67
2021/11/14 05:20:56;;;;;;;73.73;35.47;;;6.00;99.90;;;;;;5033090;28;20227;-68
2021/11/14 05:23:22;;;;;;;77.07;35.87;;;5.90;99.90;;;;;;5044032;28;20659;-67
2021/11/14 05:25:49;;;;;;;72.50;35.70;;;5.90;99.90;;;;;;5044577;28;20218;-68
2021/11/14 05:28:18;;;;;;;81.63;37.23;;;5.90;99.90;;;;;;5039088;28;20608;-67
2021/11/14 05:30:47;;;;;;;74.30;36.37;;;5.80;99.90;;;;;;5042973;28;20214;-69
2021/11/14 05:33:14;;;;;;;71.70;35.37;;;5.80;99.90;;;;;;5042815;28;20680;-66
2021/11/14 05:35:41;;;;;;;77.30;36.93;;;5.80;99.90;;;;;;5034105;28;20297;-68
2021/11/14 05:38:09;;;;;;;77.70;35.23;;;5.80;99.90;;;;;;5034285;28;20749;-68
2021/11/14 05:40:36;;;;;;;76.73;35.73;;;5.80;99.90;;;;;;5048413;28;20221;-67
2021/11/14 05:43:03;;;;;;;76.83;35.57;;;5.80;99.90;;;;;;5047252;28;20217;-68
2021/11/14 05:45:30;;;;;;;77.63;35.90;;;5.80;99.90;;;;;;5041972;28;20210;-68
2021/11/14 05:47:58;;;;;;;80.47;36.23;;;5.80;99.90;;;;;;5039561;28;20231;-68
2021/11/14 05:50:26;;;;;;;81.37;35.70;;;5.30;99.90;;;;;;5045644;28;20202;-68
2021/11/14 05:52:53;;;;;;;72.80;36.20;;;5.80;99.90;;;;;;5046212;28;20210;-68
2021/11/14 05:55:20;;;;;;;75.53;34.73;;;5.80;99.90;;;;;;5041387;28;20213;-67
2021/11/14 05:57:54;;;;;;;81.10;36.73;;;5.80;99.90;;;;;;5053715;28;20229;-67
2021/11/14 06:00:26;;;;;;;73.60;35.73;;;5.80;99.90;;;;;;5036629;28;20230;-68
2021/11/14 06:02:57;;;;;;;73.30;34.33;;;5.80;99.90;;;;;;5052385;28;20297;-67
2021/11/14 06:05:26;;;;;;;73.03;34.83;;;5.80;99.90;;;;;;5043556;28;20224;-67
2021/11/14 06:07:52;;;;;;;82.47;36.03;;;5.70;99.90;;;;;;5032912;28;20227;-67
2021/11/14 06:10:19;;;;;;;74.43;35.10;;;5.70;99.90;;;;;;5044220;28;20232;-68
2021/11/14 06:12:47;;;;;;;77.30;36.50;;;5.70;99.90;;;;;;5050084;28;20207;-68
2021/11/14 06:15:18;;;;;;;76.37;36.83;;;5.80;99.90;;;;;;5039117;28;20217;-68
2021/11/14 06:17:45;;;;;;;78.33;37.43;;;5.80;99.90;;;;;;5033687;28;20199;-69
2021/11/14 06:20:13;;;;;;;82.87;37.63;;;5.80;99.90;;;;;;5040957;28;20206;-68
2021/11/14 06:22:42;;;;;;;74.80;35.70;;;5.90;99.90;;;;;;5036550;28;20215;-69
2021/11/14 06:25:10;;;;;;;80.33;35.13;;;5.90;99.90;;;;;;5048254;28;20212;-68
2021/11/14 06:27:38;;;;;;;72.70;34.90;;;6.00;99.90;;;;;;5046486;28;20213;-69
2021/11/14 06:30:08;;;;;;;73.00;33.53;;;6.00;99.90;;;;;;5047039;28;20569;-68
2021/11/14 06:32:35;;;;;;;64.43;33.20;;;6.00;99.90;;;;;;5046899;28;20199;-68
2021/11/14 06:35:03;;;;;;;75.53;34.40;;;6.00;99.90;;;;;;5033395;28;20577;-67
2021/11/14 06:37:30;;;;;;;71.67;34.33;;;6.00;99.90;;;;;;5047198;28;20207;-67
2021/11/14 06:39:58;;;;;;;74.47;33.70;;;5.90;99.90;;;;;;5046570;28;20212;-67
2021/11/14 06:42:25;;;;;;;76.57;36.40;;;5.90;99.90;;;;;;5052596;28;20677;-68
2021/11/14 06:44:52;;;;;;;73.77;34.53;;;5.90;99.90;;;;;;5044958;28;20214;-68
2021/11/14 06:47:19;;;;;;;75.27;33.30;;;5.90;99.90;;;;;;5049774;28;20218;-68
2021/11/14 06:49:47;;;;;;;76.33;34.63;;;5.80;99.90;;;;;;5039217;28;20210;-68
2021/11/14 06:52:14;;;;;;;67.60;34.13;;;5.80;99.90;;;;;;5042817;28;20224;-68
2021/11/14 06:54:41;;;;;;;75.27;34.10;;;5.80;99.90;;;;;;5042511;28;20675;-68
2021/11/14 06:57:09;;;;;;;64.70;32.30;;;5.80;99.90;;;;;;5037884;28;20233;-69
2021/11/14 06:59:38;;;;;;;69.77;34.17;;;5.70;99.90;;;;;;5042029;28;20651;-61
2021/11/14 07:02:05;;;;;;;70.53;32.37;;;5.80;99.90;;;;;;5032575;28;20497;-62
2021/11/14 07:04:32;;;;;;;74.70;32.90;;;5.80;99.90;;;;;;5044263;28;20198;-67
2021/11/14 07:06:59;;;;;;;70.50;33.53;;;5.80;99.90;;;;;;5040311;28;20233;-67
2021/11/14 07:09:26;;;;;;;76.57;33.23;;;5.80;99.90;;;;;;5032808;28;20205;-62
2021/11/14 07:11:53;;;;;;;68.37;33.17;;;5.00;99.90;;;;;;5031573;28;20325;-61
2021/11/14 07:14:22;;;;;;;72.83;34.43;;;5.90;99.90;;;;;;5032116;28;20214;-62
2021/11/14 07:16:49;;;;;;;75.90;35.17;;;6.00;99.90;;;;;;5041931;28;20568;-62
2021/11/14 07:19:16;;;;;;;72.13;33.83;;;6.10;99.90;;;;;;5033067;28;20600;-62
2021/11/14 07:21:43;;;;;;;66.97;33.67;;;6.10;99.90;;;;;;5031241;28;20564;-61
2021/11/14 07:24:10;;;;;;;65.87;33.40;;;6.10;99.90;;;;;;5031828;28;20295;-62
2021/11/14 07:26:37;;;;;;;67.33;33.30;;;6.20;99.90;;;;;;5031937;28;20231;-62
2021/11/14 07:29:05;;;;;;;71.73;33.30;;;6.20;99.90;;;;;;5030983;28;20202;-62
2021/11/14 07:31:34;;;;;;;65.20;30.47;;;6.20;99.90;;;;;;5032918;28;20222;-63
2021/11/14 07:34:01;;;;;;;68.33;31.33;;;6.30;99.90;;;;;;5036499;28;20213;-62
2021/11/14 07:36:28;;;;;;;64.33;32.13;;;6.30;99.90;;;;;;5045703;28;20669;-63
2021/11/14 07:38:55;;;;;;;67.57;32.23;;;6.30;99.90;;;;;;5036882;28;20209;-62
2021/11/14 07:41:22;;;;;;;69.67;32.47;;;6.30;99.90;;;;;;5042671;28;20566;-68
2021/11/14 07:43:49;;;;;;;65.53;31.33;;;6.30;99.90;;;;;;5047729;28;20202;-69
2021/11/14 07:46:16;;;;;;;64.40;32.77;;;6.20;99.90;;;;;;5043482;28;20584;-68
2021/11/14 07:48:45;;;;;;;67.90;31.23;;;6.20;99.90;;;;;;5048416;28;20233;-68
2021/11/14 07:51:12;;;;;;;65.63;30.80;;;6.20;99.90;;;;;;5039267;28;20198;-69
2021/11/14 07:53:39;;;;;;;60.67;30.10;;;6.10;99.90;;;;;;5032511;28;20582;-70
2021/11/14 07:56:06;;;;;;;64.93;31.27;;;6.10;99.90;;;;;;5034918;28;20329;-69
2021/11/14 07:58:33;;;;;;;62.67;30.33;;;6.00;99.90;;;;;;5031146;28;20276;-69
2021/11/14 08:01:00;;;;;;;62.63;30.30;;;5.90;99.90;;;;;;5036979;28;20698;-67
2021/11/14 08:03:31;;;;;;;64.10;30.93;;;5.90;99.90;;;;;;5033390;28;20674;-66
2021/11/14 08:06:00;;;;;;;68.33;31.90;;;5.90;99.90;;;;;;5036189;28;20275;-66
2021/11/14 08:08:26;;;;;;;64.93;31.77;;;5.90;99.90;;;;;;5033400;28;20608;-66
2021/11/14 08:10:54;;;;;;;64.60;32.23;;;5.80;99.90;;;;;;5029236;28;20303;-66
2021/11/14 08:13:21;;;;;;;64.33;31.07;;;5.80;99.90;;;;;;5046303;28;20324;-66
2021/11/14 08:15:49;;;;;;;60.97;31.27;;;5.80;99.90;;;;;;5050112;28;20267;-66
2021/11/14 08:18:17;;;;;;;67.57;31.07;;;5.80;99.90;;;;;;5050249;28;20201;-67
2021/11/14 08:20:44;;;;;;;63.07;30.43;;;5.80;99.90;;;;;;5044416;28;20619;-65
2021/11/14 08:23:14;;;;;;;64.50;30.43;;;5.80;99.90;;;;;;5050378;28;20206;-68
2021/11/14 08:25:42;;;;;;;64.50;32.33;;;5.70;99.90;;;;;;5042135;28;20202;-66
2021/11/14 08:28:09;;;;;;;62.87;32.13;;;5.70;99.90;;;;;;5047825;28;20225;-66
2021/11/14 08:30:37;;;;;;;68.43;31.93;;;5.70;99.90;;;;;;5046502;28;20927;-62
2021/11/14 08:33:05;;;;;;;63.10;30.47;;;5.80;99.90;;;;;;5044296;28;20449;-63
2021/11/14 08:35:32;;;;;;;70.27;32.23;;;5.70;99.90;;;;;;5043310;28;20210;-65
2021/11/14 08:38:01;;;;;;;68.70;32.50;;;5.80;99.90;;;;;;5044593;28;20198;-66
2021/11/14 08:40:31;;;;;;;65.83;31.93;;;5.80;99.90;;;;;;5038698;28;20234;-65
2021/11/14 08:42:59;;;;;;;66.37;32.53;;;5.80;99.90;;;;;;5043375;28;20694;-66
2021/11/14 08:45:26;;;;;;;69.57;32.33;;;5.90;99.90;;;;;;5048401;28;20706;-68
2021/11/14 08:47:54;;;;;;;63.60;31.27;;;5.90;99.90;;;;;;5045335;28;20222;-66
2021/11/14 08:50:22;;;;;;;67.63;32.70;;;5.90;99.90;;;;;;5038741;28;20206;-67
2021/11/14 08:52:49;;;;;;;62.57;32.73;;;6.00;99.90;;;;;;5045399;28;20297;-66
2021/11/14 08:55:18;;;;;;;65.43;32.23;;;6.00;99.90;;;;;;5037692;28;20209;-65
2021/11/14 08:57:47;;;;;;;71.93;33.73;;;6.00;99.90;;;;;;5036205;28;20233;-65
2021/11/14 09:00:17;;;;;;;68.63;32.97;;;6.00;99.90;;;;;;5037601;28;20199;-64
2021/11/14 09:02:44;;;;;;;63.87;32.93;;;6.10;99.90;;;;;;5055701;28;20220;-65
2021/11/14 09:05:11;;;;;;;67.77;35.20;;;6.00;99.90;;;;;;5043905;28;20699;-64
2021/11/14 09:07:38;;;;;;;70.70;32.33;;;6.10;99.90;;;;;;5037338;28;20541;-64
2021/11/14 09:10:06;;;;;;;65.07;31.90;;;6.10;99.90;;;;;;5048511;28;20695;-64
2021/11/14 09:12:33;;;;;;;60.20;32.33;;;6.00;99.90;;;;;;5053409;28;20205;-64
2021/11/14 09:15:01;;;;;;;63.23;32.60;;;6.10;99.90;;;;;;5053350;28;20228;-67
2021/11/14 09:17:28;;;;;;;61.77;32.23;;;6.10;99.90;;;;;;5039071;28;20639;-63
2021/11/14 09:19:55;;;;;;;61.70;31.23;;;6.10;99.90;;;;;;5049787;28;20209;-64
2021/11/14 09:22:22;;;;;;;61.20;30.97;;;6.10;99.90;;;;;;5054577;28;20663;-67
2021/11/14 09:24:49;;;;;;;60.40;30.03;;;6.10;99.90;;;;;;5050780;28;20237;-65
2021/11/14 09:27:16;;;;;;;60.83;29.97;;;6.10;99.90;;;;;;5042906;28;20280;-67
2021/11/14 09:29:43;;;;;;;59.40;31.40;;;6.20;99.90;;;;;;5049448;28;20564;-66
2021/11/14 09:32:11;;;;;;;60.07;29.40;;;6.20;99.90;;;;;;5039539;28;20298;-66
2021/11/14 09:34:38;;;;;;;50.73;28.07;;;6.20;99.90;;;;;;5051433;28;20214;-65
2021/11/14 09:37:06;;;;;;;51.47;28.73;;;6.20;99.90;;;;;;5048438;28;20208;-67
2021/11/14 09:39:33;;;;;;;56.50;29.33;;;6.30;99.90;;;;;;5052327;28;20224;-66
2021/11/14 09:42:01;;;;;;;58.30;29.60;;;6.30;99.90;;;;;;5052533;28;20216;-66
2021/11/14 09:44:29;;;;;;;57.00;29.83;;;6.30;99.90;;;;;;5052679;28;20201;-65
2021/11/14 09:46:58;;;;;;;59.40;31.60;;;6.40;99.90;;;;;;5046222;28;20351;-65
2021/11/14 09:49:28;;;;;;;53.93;29.57;;;6.40;99.90;;;;;;5051759;28;20213;-65
2021/11/14 09:51:56;;;;;;;61.23;30.93;;;6.50;99.90;;;;;;5035040;28;20221;-67
2021/11/14 09:54:25;;;;;;;56.70;29.00;;;6.50;99.90;;;;;;5046685;28;20302;-65
2021/11/14 09:56:52;;;;;;;55.70;29.10;;;6.50;99.90;;;;;;5051741;28;20229;-66
2021/11/14 09:59:20;;;;;;;49.57;29.03;;;6.50;99.90;;;;;;5046775;28;20206;-66
2021/11/14 10:01:48;;;;;;;54.37;29.63;;;6.40;99.90;;;;;;5037572;28;20210;-67
2021/11/14 10:04:15;;;;;;;52.80;29.93;;;6.40;99.90;;;;;;5036877;28;20224;-68
2021/11/14 10:06:53;;;;;;;49.93;28.03;;;6.40;99.90;;;;;;5045878;28;20209;-66
2021/11/14 10:09:29;;;;;;;54.33;30.00;;;6.40;99.90;;;;;;5044446;28;20651;-69
2021/11/14 10:11:56;;;;;;;57.87;29.47;;;6.40;99.90;;;;;;5049188;28;20583;-69
2021/11/14 10:14:23;;;;;;;54.43;29.83;;;6.40;99.90;;;;;;5037179;28;20325;-67
2021/11/14 10:16:50;;;;;;;54.33;30.47;;;6.40;99.90;;;;;;5041959;28;20214;-67
2021/11/14 10:19:17;;;;;;;51.73;30.23;;;6.40;99.90;;;;;;5045533;28;20235;-68
2021/11/14 10:21:47;;;;;;;54.87;30.80;;;6.50;99.90;;;;;;5033413;28;20304;-67
2021/11/14 10:24:15;;;;;;;52.60;30.30;;;6.40;99.90;;;;;;5039951;28;20213;-69
2021/11/14 10:26:42;;;;;;;53.70;28.93;;;6.50;99.90;;;;;;5036675;28;20205;-68
2021/11/14 10:29:11;;;;;;;58.17;31.00;;;6.50;99.90;;;;;;5032436;28;20233;-69
2021/11/14 10:31:40;;;;;;;58.07;30.47;;;6.50;99.90;;;;;;5032887;28;20309;-69
2021/11/14 10:34:07;;;;;;;56.07;29.03;;;6.50;99.90;;;;;;5042631;28;20207;-67
2021/11/14 10:36:35;;;;;;;56.20;30.23;;;6.50;99.90;;;;;;5043245;28;20217;-68
2021/11/14 10:39:06;;;;;;;60.47;31.27;;;6.50;99.90;;;;;;5035178;28;20441;-68
2021/11/14 10:41:33;;;;;;;58.40;30.13;;;6.50;99.90;;;;;;5042476;28;20296;-71
2021/11/14 10:44:05;;;;;;;53.20;30.63;;;6.50;99.90;;;;;;5036821;28;20210;-71
2021/11/14 10:46:36;;;;;;;57.40;30.60;;;6.50;99.90;;;;;;5042837;28;20259;-69
2021/11/14 10:49:05;;;;;;;60.37;31.93;;;6.60;99.90;;;;;;5041131;28;20214;-68
2021/11/14 10:51:32;;;;;;;54.23;29.23;;;6.60;99.90;;;;;;5044812;28;20732;-68
2021/11/14 10:53:59;;;;;;;61.27;31.20;;;6.60;99.90;;;;;;5039883;28;20214;-70
2021/11/14 10:56:27;;;;;;;54.73;29.57;;;6.60;99.90;;;;;;5042495;28;20230;-68
2021/11/14 10:58:55;;;;;;;54.97;29.37;;;6.60;99.90;;;;;;5038903;28;20713;-68
2021/11/14 11:01:22;;;;;;;54.73;29.33;;;6.60;99.90;;;;;;5038961;28;20609;-69
2021/11/14 11:03:51;;;;;;;66.20;30.47;;;6.60;99.90;;;;;;5045333;28;20211;-68
2021/11/14 11:06:20;;;;;;;60.20;29.27;;;6.50;99.90;;;;;;5040304;28;20637;-67
2021/11/14 11:08:47;;;;;;;57.87;30.67;;;6.50;99.90;;;;;;5036054;28;20329;-67
2021/11/14 11:11:14;;;;;;;60.37;30.43;;;6.50;99.90;;;;;;5038313;28;20234;-69
2021/11/14 11:13:45;;;;;;;55.27;30.37;;;6.40;99.90;;;;;;5051819;28;20232;-65
2021/11/14 11:16:14;;;;;;;59.97;31.67;;;6.40;99.90;;;;;;5040384;28;20218;-70
2021/11/14 11:18:44;;;;;;;59.63;31.10;;;6.40;99.90;;;;;;5037886;28;20311;-64
2021/11/14 11:21:12;;;;;;;55.83;30.00;;;6.40;99.90;;;;;;5035892;28;20563;-66
2021/11/14 11:23:45;;;;;;;65.93;32.00;;;6.40;99.90;;;;;;5034940;28;20211;-65
2021/11/14 11:26:12;;;;;;;58.10;29.63;;;6.40;99.90;;;;;;5035186;28;20226;-65
2021/11/14 11:28:43;;;;;;;58.57;28.67;;;6.40;99.90;;;;;;5037948;28;20312;-65
2021/11/14 11:31:13;;;;;;;59.70;30.90;;;6.40;99.90;;;;;;5037991;28;21281;-66
2021/11/14 11:33:43;;;;;;;61.03;31.50;;;6.40;99.90;;;;;;5038463;28;20222;-68
2021/11/14 11:36:12;;;;;;;57.57;31.47;;;6.50;99.90;;;;;;5039324;28;20674;-64
2021/11/14 11:38:43;;;;;;;57.37;30.37;;;6.50;99.90;;;;;;5036615;28;20210;-64
2021/11/14 11:41:11;;;;;;;63.37;30.57;;;6.60;99.90;;;;;;5045835;28;20296;-64
2021/11/14 11:43:39;;;;;;;57.03;29.10;;;6.60;99.90;;;;;;5038161;28;20210;-63
2021/11/14 11:46:10;;;;;;;58.97;29.87;;;6.60;99.90;;;;;;5040507;28;20681;-65
2021/11/14 11:48:39;;;;;;;52.57;29.07;;;6.70;99.90;;;;;;5044144;28;20225;-65
2021/11/14 11:51:08;;;;;;;56.47;29.80;;;6.70;99.90;;;;;;5039115;28;20210;-63
2021/11/14 11:53:35;;;;;;;54.27;29.53;;;6.80;99.90;;;;;;5031551;28;20217;-64
2021/11/14 11:56:07;;;;;;;54.57;28.80;;;6.70;99.90;;;;;;5033966;28;20277;-63
2021/11/14 11:58:40;;;;;;;54.90;29.43;;;6.80;99.90;;;;;;5038637;28;20200;-64
2021/11/14 12:01:21;;;;;;;55.17;30.40;;;6.70;99.90;;;;;;5035451;28;20198;-64
2021/11/14 12:03:48;;;;;;;58.10;30.17;;;6.70;99.90;;;;;;5043394;28;20217;-63
2021/11/14 12:06:22;;;;;;;57.57;30.57;;;6.70;99.90;;;;;;5038982;28;20305;-65
2021/11/14 12:08:51;;;;;;;54.20;29.57;;;6.70;99.90;;;;;;5035574;28;20229;-65
2021/11/14 12:11:29;;;;;;;54.47;29.83;;;6.80;99.90;;;;;;5034905;28;20594;-64
2021/11/14 12:13:56;;;;;;;56.40;29.27;;;6.80;99.90;;;;;;5038849;28;20206;-63
2021/11/14 12:16:31;;;;;;;50.97;27.67;;;6.80;99.90;;;;;;5035202;28;20552;-63
2021/11/14 12:18:59;;;;;;;53.43;27.87;;;6.80;99.90;;;;;;5037452;28;20233;-62
2021/11/14 12:21:28;;;;;;;56.97;28.60;;;6.90;99.90;;;;;;5034632;28;20210;-63
2021/11/14 12:23:59;;;;;;;54.13;29.60;;;6.80;99.90;;;;;;5038687;28;20202;-63
2021/11/14 12:26:30;;;;;;;58.73;29.80;;;6.90;99.90;;;;;;5032911;28;20293;-65
2021/11/14 12:29:00;;;;;;;57.43;31.20;;;6.90;99.90;;;;;;5039093;28;20206;-64
2021/11/14 12:31:31;;;;;;;56.30;29.93;;;6.90;99.90;;;;;;5033016;28;20202;-64
2021/11/14 12:33:59;;;;;;;60.60;30.10;;;6.90;99.90;;;;;;5039448;28;20209;-63
2021/11/14 12:36:34;;;;;;;57.53;29.13;;;6.90;99.90;;;;;;5034513;28;20209;-62
2021/11/14 12:39:12;;;;;;;59.23;30.73;;;6.90;99.90;;;;;;5039664;28;20247;-63